Time;durP1;ratioP1;P1;durP2;ratioP2;P2;SDS_P1;SDS_P2;PMS_P1;PMS_P2;Temp;Humidity;BMP_temperature;BMP_pressure;BME280_temperature;BME280_humidity;BME280_pressure;Samples;Min_cycle;Max_cycle;Signal;HPM_P1;HPM_P2
2021/08/28 00:00:59;;;;;;;1.08;0.70;;;22.50;54.60;;;;;;5029356;28;20033;-58
2021/08/28 00:03:24;;;;;;;1.50;0.77;;;22.50;54.60;;;;;;5027729;28;20030;-55
2021/08/28 00:05:50;;;;;;;1.33;0.85;;;22.50;54.60;;;;;;5013727;28;20819;-57
2021/08/28 00:08:17;;;;;;;1.77;0.90;;;22.60;54.60;;;;;;5017777;28;20049;-58
2021/08/28 00:10:43;;;;;;;2.10;0.98;;;22.50;54.60;;;;;;5017180;28;20080;-49
2021/08/28 00:13:09;;;;;;;1.33;0.80;;;22.50;54.60;;;;;;5016649;28;20120;-55
2021/08/28 00:15:35;;;;;;;1.48;1.00;;;22.50;54.60;;;;;;5018969;28;20041;-59
2021/08/28 00:18:01;;;;;;;1.20;0.75;;;22.50;54.60;;;;;;5027436;28;20087;-58
2021/08/28 00:20:27;;;;;;;1.65;0.90;;;22.50;54.60;;;;;;5027925;28;20033;-55
2021/08/28 00:22:53;;;;;;;1.50;0.80;;;22.40;54.50;;;;;;5009008;28;20057;-56
2021/08/28 00:25:19;;;;;;;2.05;0.90;;;22.50;54.60;;;;;;5009409;28;20422;-59
2021/08/28 00:27:44;;;;;;;1.38;0.80;;;22.50;54.50;;;;;;5021817;28;20132;-56
2021/08/28 00:30:11;;;;;;;1.63;0.90;;;22.50;54.60;;;;;;5018016;28;20451;-58
2021/08/28 00:32:37;;;;;;;1.60;0.80;;;22.50;54.60;;;;;;5009210;28;20054;-53
2021/08/28 00:35:05;;;;;;;2.17;0.95;;;22.40;54.50;;;;;;5020228;28;20037;-58
2021/08/28 00:37:31;;;;;;;1.30;0.80;;;22.40;54.50;;;;;;5027111;28;20112;-54
2021/08/28 00:39:57;;;;;;;2.05;0.90;;;22.40;54.50;;;;;;5027208;28;20096;-57
2021/08/28 00:42:23;;;;;;;1.15;0.70;;;22.40;54.50;;;;;;5013868;28;20042;-58
2021/08/28 00:44:48;;;;;;;2.13;1.20;;;22.40;54.50;;;;;;5017826;28;20362;-57
2021/08/28 00:47:16;;;;;;;2.80;0.80;;;22.40;54.50;;;;;;5025171;28;20036;-59
2021/08/28 00:49:44;;;;;;;1.75;0.90;;;22.40;54.50;;;;;;5024454;28;20044;-59
2021/08/28 00:52:10;;;;;;;0.70;0.70;;;22.40;54.50;;;;;;5009484;28;20557;-55
2021/08/28 00:54:38;;;;;;;1.23;0.80;;;22.40;54.50;;;;;;5011990;28;20399;-51
2021/08/28 00:57:05;;;;;;;1.48;0.70;;;22.40;54.50;;;;;;5027203;28;20066;-57
2021/08/28 00:59:31;;;;;;;2.67;1.00;;;22.40;55.00;;;;;;5028089;28;20025;-54
2021/08/28 01:01:57;;;;;;;1.25;0.80;;;22.40;54.50;;;;;;5025277;28;20021;-55
2021/08/28 01:04:27;;;;;;;1.88;0.77;;;22.40;54.50;;;;;;5010877;28;20084;-57
2021/08/28 01:07:08;;;;;;;1.40;0.85;;;22.40;54.50;;;;;;5026943;28;20028;-48
2021/08/28 01:09:36;;;;;;;0.98;0.80;;;22.40;54.50;;;;;;5006937;28;20130;-57
2021/08/28 01:12:08;;;;;;;1.10;0.80;;;22.40;54.50;;;;;;5018408;28;20112;-58
2021/08/28 01:14:38;;;;;;;2.50;0.85;;;22.40;54.50;;;;;;5013358;28;20446;-49
2021/08/28 01:17:09;;;;;;;1.00;0.70;;;22.40;54.50;;;;;;5027489;28;20509;-52
2021/08/28 01:19:37;;;;;;;1.85;0.80;;;22.40;54.50;;;;;;5020994;28;20026;-53
2021/08/28 01:22:07;;;;;;;2.10;0.82;;;22.40;54.50;;;;;;5017521;28;20099;-51
2021/08/28 01:24:33;;;;;;;;;;;22.40;54.50;;;;;;5022864;28;20425;-54
2021/08/28 01:27:10;;;;;;;1.00;0.80;;;22.40;54.50;;;;;;5022768;28;19916;-54
2021/08/28 01:29:37;;;;;;;2.17;0.85;;;22.40;54.40;;;;;;5025501;28;20022;-57
2021/08/28 01:32:04;;;;;;;1.40;1.00;;;22.40;54.40;;;;;;5027688;28;20032;-58
2021/08/28 01:34:31;;;;;;;1.65;0.93;;;22.40;54.50;;;;;;5021096;28;20025;-50
2021/08/28 01:36:58;;;;;;;1.98;0.80;;;22.40;54.40;;;;;;5020189;28;20044;-57
2021/08/28 01:39:25;;;;;;;1.30;0.80;;;22.40;54.50;;;;;;5024696;28;20243;-49
2021/08/28 01:41:57;;;;;;;1.63;0.82;;;22.40;54.50;;;;;;5023907;28;20042;-58
2021/08/28 01:44:24;;;;;;;0.90;0.70;;;22.40;54.50;;;;;;5007889;28;20450;-56
2021/08/28 01:46:50;;;;;;;1.52;0.80;;;22.40;55.00;;;;;;5017127;28;20033;-57
2021/08/28 01:49:16;;;;;;;2.38;0.80;;;22.40;54.50;;;;;;5025752;28;20065;-54
2021/08/28 01:51:45;;;;;;;1.67;0.75;;;22.40;54.50;;;;;;5022466;28;20018;-59
2021/08/28 01:54:10;;;;;;;2.92;0.90;;;22.40;54.50;;;;;;5010351;28;20057;-55
2021/08/28 01:56:36;;;;;;;0.82;0.63;;;22.30;54.40;;;;;;5020025;28;20088;-55
2021/08/28 01:59:03;;;;;;;2.75;0.73;;;22.30;54.40;;;;;;5008324;28;20065;-52
2021/08/28 02:01:28;;;;;;;1.15;0.70;;;22.30;54.50;;;;;;5013874;28;20022;-59
2021/08/28 02:03:54;;;;;;;1.15;0.90;;;22.40;54.50;;;;;;5014709;28;20036;-53
2021/08/28 02:06:40;;;;;;;1.00;0.70;;;22.30;54.40;;;;;;5015655;28;20351;-59
2021/08/28 02:09:09;;;;;;;1.70;0.75;;;22.30;54.50;;;;;;4999349;28;20595;-57
2021/08/28 02:11:47;;;;;;;1.05;0.75;;;22.30;54.50;;;;;;5007025;28;20427;-52
2021/08/28 02:14:20;;;;;;;0.93;0.70;;;22.30;54.40;;;;;;5020633;28;20132;-58
2021/08/28 02:16:46;;;;;;;1.70;0.80;;;22.30;54.40;;;;;;5026930;28;20060;-54
2021/08/28 02:19:41;;;;;;;1.35;0.80;;;22.30;54.40;;;;;;5025453;28;20445;-55
2021/08/28 02:22:25;;;;;;;2.42;0.90;;;22.30;54.50;;;;;;5029371;28;20643;-49
2021/08/28 02:24:56;;;;;;;2.33;1.02;;;22.30;54.40;;;;;;5013705;28;20141;-56
2021/08/28 02:27:55;;;;;;;1.30;0.82;;;22.30;54.40;;;;;;5021436;28;20037;-58
2021/08/28 02:30:21;;;;;;;;;;;22.30;54.50;;;;;;5000954;28;20076;-52
2021/08/28 02:32:50;;;;;;;1.92;0.70;;;22.30;55.00;;;;;;5030716;28;19948;-57
2021/08/28 02:35:16;;;;;;;2.05;0.70;;;22.30;54.40;;;;;;5028096;28;20401;-58
2021/08/28 02:37:44;;;;;;;1.40;0.80;;;22.30;54.40;;;;;;5025001;28;20037;-58
2021/08/28 02:40:12;;;;;;;1.13;0.95;;;22.30;54.40;;;;;;5021062;28;20107;-58
2021/08/28 02:42:39;;;;;;;0.77;0.70;;;22.30;54.40;;;;;;5012709;28;20535;-53
2021/08/28 02:45:06;;;;;;;1.02;0.68;;;22.30;54.50;;;;;;5021494;28;20626;-59
2021/08/28 02:47:32;;;;;;;1.15;0.80;;;22.30;54.40;;;;;;5026875;28;20018;-56
2021/08/28 02:50:02;;;;;;;2.17;0.70;;;22.30;54.50;;;;;;5025899;28;20033;-58
2021/08/28 02:52:29;;;;;;;1.42;0.90;;;22.30;54.40;;;;;;5029925;28;20029;-57
2021/08/28 02:54:59;;;;;;;0.68;0.60;;;22.30;54.50;;;;;;5021090;28;20065;-54
2021/08/28 02:57:26;;;;;;;1.88;0.80;;;22.30;54.40;;;;;;5023483;28;20034;-54
2021/08/28 02:59:53;;;;;;;0.80;0.75;;;22.30;54.40;;;;;;5029537;28;20419;-49
2021/08/28 03:02:20;;;;;;;1.58;0.80;;;22.30;54.50;;;;;;5022202;28;20052;-53
2021/08/28 03:04:47;;;;;;;1.02;0.82;;;22.30;54.40;;;;;;5008633;28;20048;-55
2021/08/28 03:07:13;;;;;;;1.10;0.70;;;22.30;54.40;;;;;;5014105;28;20059;-58
2021/08/28 03:09:40;;;;;;;1.45;0.80;;;22.30;54.50;;;;;;5009222;28;20118;-54
2021/08/28 03:12:06;;;;;;;1.15;0.77;;;22.30;55.00;;;;;;5009694;28;20044;-57
2021/08/28 03:14:32;;;;;;;1.30;0.80;;;22.30;54.50;;;;;;5014167;28;20030;-58
2021/08/28 03:16:59;;;;;;;1.58;0.80;;;22.30;54.50;;;;;;5011021;28;20084;-51
2021/08/28 03:19:27;;;;;;;1.17;0.75;;;22.20;54.40;;;;;;5027339;28;20021;-57
2021/08/28 03:21:54;;;;;;;1.52;0.80;;;22.30;54.50;;;;;;5029798;28;20030;-55
2021/08/28 03:24:22;;;;;;;0.95;0.80;;;22.20;54.50;;;;;;5029284;28;20610;-52
2021/08/28 03:26:49;;;;;;;0.93;0.73;;;22.30;54.50;;;;;;5017471;28;20041;-59
2021/08/28 03:29:16;;;;;;;1.40;0.88;;;22.30;54.50;;;;;;5011096;28;20113;-58
2021/08/28 03:31:42;;;;;;;1.42;0.80;;;22.30;54.50;;;;;;5009647;28;20025;-58
2021/08/28 03:34:08;;;;;;;1.58;0.82;;;22.30;54.50;;;;;;5024936;28;20526;-57
2021/08/28 03:36:36;;;;;;;1.27;0.70;;;22.20;54.40;;;;;;5022773;28;20034;-53
2021/08/28 03:39:02;;;;;;;1.52;0.70;;;22.20;54.40;;;;;;5020929;28;20029;-55
2021/08/28 03:41:28;;;;;;;1.40;0.75;;;22.20;54.40;;;;;;5019595;28;20033;-53
2021/08/28 03:43:54;;;;;;;1.30;0.90;;;22.20;55.00;;;;;;5028238;28;20136;-59
2021/08/28 03:46:20;;;;;;;1.20;0.80;;;22.20;54.50;;;;;;5014404;28;20032;-58
2021/08/28 03:48:46;;;;;;;1.45;0.80;;;22.30;54.50;;;;;;5015007;28;20020;-51
2021/08/28 03:51:12;;;;;;;3.55;0.80;;;22.20;54.50;;;;;;5028230;28;20488;-57
2021/08/28 03:53:37;;;;;;;1.42;0.80;;;22.20;54.50;;;;;;5028886;28;20540;-49
2021/08/28 03:56:05;;;;;;;0.77;0.70;;;22.20;54.50;;;;;;5028178;28;20033;-57
2021/08/28 03:58:30;;;;;;;1.40;0.80;;;22.20;54.40;;;;;;5025926;28;20036;-56
2021/08/28 04:00:56;;;;;;;0.80;0.65;;;22.20;54.40;;;;;;5029563;28;20436;-54
2021/08/28 04:03:22;;;;;;;1.30;0.80;;;22.20;54.40;;;;;;5013156;28;20029;-59
2021/08/28 04:05:47;;;;;;;1.13;0.63;;;22.20;54.40;;;;;;5008551;28;20057;-59
2021/08/28 04:08:13;;;;;;;1.58;0.70;;;22.20;54.40;;;;;;5013894;28;20025;-57
2021/08/28 04:10:39;;;;;;;1.10;0.60;;;22.20;54.40;;;;;;5019837;28;20097;-55
2021/08/28 04:13:04;;;;;;;1.08;0.80;;;22.20;54.40;;;;;;5029247;28;20041;-57
2021/08/28 04:15:30;;;;;;;1.15;0.82;;;22.20;54.50;;;;;;5039093;28;20032;-57
2021/08/28 04:17:56;;;;;;;1.10;0.70;;;22.20;54.50;;;;;;5018591;28;20121;-57
2021/08/28 04:20:21;;;;;;;0.93;0.80;;;22.20;54.40;;;;;;5027098;28;20477;-57
2021/08/28 04:22:47;;;;;;;0.98;0.70;;;22.20;54.40;;;;;;5036283;28;20098;-58
2021/08/28 04:25:13;;;;;;;0.90;0.70;;;22.20;54.50;;;;;;5036857;28;20556;-53
2021/08/28 04:27:39;;;;;;;0.95;0.60;;;22.20;54.50;;;;;;5029125;28;20096;-59
2021/08/28 04:30:06;;;;;;;0.75;0.70;;;22.20;54.40;;;;;;5024414;28;20037;-57
2021/08/28 04:32:32;;;;;;;1.08;0.80;;;22.20;54.50;;;;;;5008045;28;20492;-56
2021/08/28 04:34:57;;;;;;;1.23;0.60;;;22.20;54.50;;;;;;5006319;28;20033;-58
2021/08/28 04:37:23;;;;;;;1.17;0.70;;;22.20;54.50;;;;;;5011773;28;20064;-54
2021/08/28 04:39:48;;;;;;;1.05;0.80;;;22.20;54.50;;;;;;5025853;28;20091;-51
2021/08/28 04:42:14;;;;;;;1.08;0.77;;;22.20;54.50;;;;;;5011243;28;20045;-56
2021/08/28 04:44:40;;;;;;;1.10;0.77;;;22.20;54.40;;;;;;5024751;28;20133;-57
2021/08/28 04:47:05;;;;;;;0.98;0.70;;;22.20;54.50;;;;;;5028177;28;20065;-59
2021/08/28 04:49:31;;;;;;;0.70;0.70;;;22.20;54.50;;;;;;5021538;28;20026;-55
2021/08/28 04:51:58;;;;;;;0.77;0.68;;;22.20;54.50;;;;;;5028272;28;20060;-50
2021/08/28 04:54:25;;;;;;;1.95;0.82;;;22.20;54.50;;;;;;5025548;28;20106;-58
2021/08/28 04:56:50;;;;;;;1.40;0.77;;;22.20;54.50;;;;;;5026604;28;20083;-51
2021/08/28 04:59:16;;;;;;;0.90;0.70;;;22.20;54.50;;;;;;5024229;28;20097;-51
2021/08/28 05:01:42;;;;;;;1.00;0.73;;;22.20;54.50;;;;;;5008569;28;20029;-51
2021/08/28 05:04:08;;;;;;;1.17;0.80;;;22.10;54.40;;;;;;5006986;28;20386;-55
2021/08/28 05:06:33;;;;;;;1.25;0.70;;;22.20;54.50;;;;;;5007753;28;20168;-51
2021/08/28 05:08:59;;;;;;;0.90;0.70;;;22.10;54.40;;;;;;5008128;28;20087;-58
2021/08/28 05:11:26;;;;;;;0.65;0.60;;;22.10;54.40;;;;;;5020262;28;20029;-55
2021/08/28 05:13:51;;;;;;;1.30;0.75;;;22.20;54.50;;;;;;5025680;28;20409;-59
2021/08/28 05:16:17;;;;;;;0.77;0.60;;;22.10;54.40;;;;;;5027395;28;20036;-57
2021/08/28 05:18:42;;;;;;;0.93;0.70;;;22.20;54.50;;;;;;5026180;28;20446;-52
2021/08/28 05:21:08;;;;;;;0.98;0.70;;;22.10;54.40;;;;;;5026229;28;20028;-58
2021/08/28 05:23:34;;;;;;;1.10;0.88;;;22.10;54.40;;;;;;5017044;28;20105;-56
2021/08/28 05:26:00;;;;;;;1.38;0.63;;;22.10;54.50;;;;;;5019594;28;20021;-51
2021/08/28 05:28:25;;;;;;;0.77;0.70;;;22.10;54.40;;;;;;5018287;28;20089;-51
2021/08/28 05:30:51;;;;;;;0.70;0.60;;;22.10;54.40;;;;;;5023427;28;20207;-57
2021/08/28 05:33:17;;;;;;;1.00;0.70;;;22.10;54.50;;;;;;5008539;28;20481;-57
2021/08/28 05:35:43;;;;;;;0.77;0.70;;;22.10;54.40;;;;;;5016336;28;20026;-50
2021/08/28 05:38:09;;;;;;;0.93;0.70;;;22.10;54.40;;;;;;5015953;28;20044;-55
2021/08/28 05:40:34;;;;;;;1.42;0.70;;;22.10;54.40;;;;;;5026962;28;20034;-58
2021/08/28 05:43:00;;;;;;;0.95;0.65;;;22.10;54.50;;;;;;5023958;28;20048;-59
2021/08/28 05:45:26;;;;;;;1.10;0.70;;;22.10;54.50;;;;;;5010408;28;20033;-57
2021/08/28 05:47:51;;;;;;;1.00;0.70;;;22.10;54.50;;;;;;5020594;28;20460;-58
2021/08/28 05:50:17;;;;;;;1.15;0.70;;;22.10;54.50;;;;;;5027778;28;20077;-54
2021/08/28 05:52:43;;;;;;;1.38;0.80;;;22.10;54.50;;;;;;5021590;28;20105;-57
2021/08/28 05:55:14;;;;;;;0.50;0.50;;;22.10;54.50;;;;;;5016912;28;20025;-59
2021/08/28 05:57:41;;;;;;;0.90;0.70;;;22.10;54.50;;;;;;5024908;28;20025;-59
2021/08/28 06:00:08;;;;;;;1.77;0.80;;;22.10;54.50;;;;;;5030076;28;20033;-55
2021/08/28 06:02:36;;;;;;;1.30;0.60;;;22.10;54.50;;;;;;5030798;28;20097;-57
2021/08/28 06:05:04;;;;;;;0.95;0.80;;;22.10;54.50;;;;;;5024409;28;20445;-58
2021/08/28 06:07:30;;;;;;;0.80;0.60;;;22.10;54.50;;;;;;5016614;28;20042;-57
2021/08/28 06:09:55;;;;;;;1.00;0.70;;;22.10;54.50;;;;;;5022669;28;20036;-56
2021/08/28 06:12:21;;;;;;;0.70;0.70;;;22.10;54.50;;;;;;5017343;28;20033;-56
2021/08/28 06:14:46;;;;;;;0.68;0.52;;;22.10;55.00;;;;;;5030365;28;20724;-59
2021/08/28 06:17:12;;;;;;;0.85;0.73;;;22.10;54.50;;;;;;5028167;28;20029;-52
2021/08/28 06:19:38;;;;;;;1.17;0.70;;;22.10;54.50;;;;;;5022349;28;20021;-57
2021/08/28 06:22:04;;;;;;;0.90;0.60;;;22.10;54.50;;;;;;5024122;28;20551;-59
2021/08/28 06:24:29;;;;;;;1.05;0.80;;;22.10;54.50;;;;;;5045583;28;20357;-58
2021/08/28 06:26:55;;;;;;;0.80;0.70;;;22.10;54.50;;;;;;5020259;28;20029;-57
2021/08/28 06:29:21;;;;;;;1.35;0.70;;;22.10;54.50;;;;;;5014710;28;20113;-52
2021/08/28 06:31:46;;;;;;;0.85;0.70;;;22.10;55.00;;;;;;5018468;28;20532;-55
2021/08/28 06:34:12;;;;;;;1.08;0.80;;;22.10;54.50;;;;;;5027035;28;20095;-55
2021/08/28 06:36:37;;;;;;;1.00;0.60;;;22.10;54.50;;;;;;5029086;28;20678;-57
2021/08/28 06:39:03;;;;;;;0.93;0.60;;;22.10;54.50;;;;;;5014446;28;20034;-58
2021/08/28 06:41:29;;;;;;;1.20;0.80;;;22.00;54.40;;;;;;5023194;28;20109;-57
2021/08/28 06:43:54;;;;;;;0.80;0.60;;;22.10;54.50;;;;;;5049409;28;20071;-58
2021/08/28 06:46:20;;;;;;;1.58;0.60;;;22.10;54.50;;;;;;5034170;28;20075;-58
2021/08/28 06:48:46;;;;;;;0.95;0.65;;;22.10;54.50;;;;;;5028045;28;20040;-57
2021/08/28 06:51:11;;;;;;;1.00;0.70;;;22.00;54.50;;;;;;5041374;28;20029;-55
2021/08/28 06:53:37;;;;;;;0.80;0.60;;;22.00;54.50;;;;;;5029293;28;20382;-57
2021/08/28 06:56:03;;;;;;;0.98;0.70;;;22.00;54.50;;;;;;5027250;28;20064;-57
2021/08/28 06:58:28;;;;;;;0.63;0.60;;;22.00;54.50;;;;;;5016937;28;20061;-58
2021/08/28 07:00:55;;;;;;;0.93;0.60;;;22.00;54.50;;;;;;5030246;28;20026;-58
2021/08/28 07:03:20;;;;;;;0.90;0.70;;;22.00;54.50;;;;;;5036965;28;20374;-50
2021/08/28 07:05:46;;;;;;;0.70;0.60;;;22.00;54.50;;;;;;5026568;28;20033;-55
2021/08/28 07:08:11;;;;;;;0.50;0.50;;;22.00;54.50;;;;;;5025123;28;20117;-52
2021/08/28 07:10:37;;;;;;;0.95;0.70;;;22.00;54.50;;;;;;5027593;28;20029;-58
2021/08/28 07:13:03;;;;;;;1.02;0.50;;;22.00;54.50;;;;;;5028048;28;20029;-52
2021/08/28 07:15:29;;;;;;;0.65;0.65;;;22.00;54.50;;;;;;5016389;28;20492;-59
2021/08/28 07:17:54;;;;;;;0.93;0.60;;;22.00;55.00;;;;;;5028861;28;20496;-57
2021/08/28 07:20:20;;;;;;;0.85;0.60;;;22.00;54.50;;;;;;5029027;28;20065;-59
2021/08/28 07:22:46;;;;;;;1.05;0.70;;;22.00;54.50;;;;;;5030393;28;20417;-57
2021/08/28 07:25:11;;;;;;;0.60;0.60;;;22.00;54.50;;;;;;5048892;28;20041;-55
2021/08/28 07:27:38;;;;;;;0.77;0.70;;;22.00;54.50;;;;;;5013301;28;20018;-55
2021/08/28 07:30:04;;;;;;;0.60;0.60;;;22.00;54.50;;;;;;5029240;28;20535;-54
2021/08/28 07:32:30;;;;;;;1.58;0.60;;;22.00;54.50;;;;;;5029206;28;20059;-56
2021/08/28 07:34:56;;;;;;;0.90;0.73;;;22.00;54.50;;;;;;5025491;28;20401;-56
2021/08/28 07:37:22;;;;;;;1.00;0.65;;;22.00;54.50;;;;;;5027424;28;20034;-57
2021/08/28 07:39:48;;;;;;;0.60;0.60;;;22.00;54.50;;;;;;5019895;28;20068;-59
2021/08/28 07:42:14;;;;;;;0.85;0.60;;;22.00;54.50;;;;;;5027809;28;20037;-50
2021/08/28 07:44:40;;;;;;;0.77;0.70;;;22.00;54.50;;;;;;5027228;28;20037;-59
2021/08/28 07:47:05;;;;;;;0.95;0.70;;;22.00;54.50;;;;;;5023067;28;20035;-56
2021/08/28 07:49:31;;;;;;;0.85;0.60;;;22.00;54.50;;;;;;5023732;28;20056;-58
2021/08/28 07:51:57;;;;;;;0.60;0.60;;;22.00;54.50;;;;;;5009778;28;20033;-51
2021/08/28 07:54:22;;;;;;;1.23;0.70;;;22.00;54.50;;;;;;5029334;28;20508;-58
2021/08/28 07:56:48;;;;;;;1.25;0.70;;;22.00;54.50;;;;;;5027648;28;20036;-58
2021/08/28 07:59:14;;;;;;;0.73;0.60;;;22.00;54.50;;;;;;5024655;28;20033;-58
2021/08/28 08:01:40;;;;;;;0.75;0.60;;;22.00;54.60;;;;;;5015548;28;20644;-55
2021/08/28 08:04:05;;;;;;;1.90;0.80;;;22.00;54.60;;;;;;5032274;28;20033;-53
2021/08/28 08:06:31;;;;;;;0.75;0.60;;;22.00;54.60;;;;;;5027762;28;20041;-53
2021/08/28 08:08:56;;;;;;;0.85;0.60;;;22.00;54.60;;;;;;5008906;28;20076;-57
2021/08/28 08:11:22;;;;;;;1.13;0.60;;;22.00;54.60;;;;;;5014154;28;20022;-59
2021/08/28 08:13:48;;;;;;;1.38;0.65;;;22.00;54.60;;;;;;5025873;28;20046;-54
2021/08/28 08:16:13;;;;;;;0.50;0.50;;;22.00;54.60;;;;;;5021847;28;20045;-58
2021/08/28 08:18:39;;;;;;;1.08;0.70;;;22.00;54.60;;;;;;5011814;28;20029;-58
2021/08/28 08:21:05;;;;;;;0.73;0.57;;;22.00;54.60;;;;;;5025758;28;20128;-52
2021/08/28 08:23:31;;;;;;;0.50;0.50;;;22.00;54.60;;;;;;5025296;28;20040;-57
2021/08/28 08:25:57;;;;;;;0.75;0.68;;;22.00;54.60;;;;;;5041809;28;20040;-57
2021/08/28 08:28:23;;;;;;;0.52;0.52;;;22.00;54.60;;;;;;5013192;28;20335;-57
2021/08/28 08:30:48;;;;;;;1.17;0.70;;;22.00;54.60;;;;;;5022147;28;20488;-56
2021/08/28 08:33:14;;;;;;;0.75;0.60;;;22.00;54.60;;;;;;5027740;28;20030;-57
2021/08/28 08:35:40;;;;;;;1.27;0.70;;;22.00;54.60;;;;;;5019784;28;20042;-59
2021/08/28 08:38:06;;;;;;;0.70;0.60;;;22.00;54.60;;;;;;5022209;28;20452;-58
2021/08/28 08:40:31;;;;;;;0.70;0.70;;;22.00;54.60;;;;;;5019259;28;20040;-57
2021/08/28 08:43:02;;;;;;;0.70;0.70;;;22.00;54.60;;;;;;5022187;28;20114;-58
2021/08/28 08:45:28;;;;;;;1.08;0.70;;;22.00;54.60;;;;;;5019611;28;20117;-56
2021/08/28 08:47:55;;;;;;;0.90;0.60;;;21.90;54.50;;;;;;5015051;28;20077;-58
2021/08/28 08:50:22;;;;;;;0.65;0.60;;;22.00;54.60;;;;;;5015514;28;20029;-54
2021/08/28 08:52:54;;;;;;;1.35;0.60;;;22.00;54.60;;;;;;5011082;28;20108;-56
2021/08/28 08:55:20;;;;;;;1.50;0.80;;;22.00;54.60;;;;;;5016687;28;20029;-59
2021/08/28 08:57:47;;;;;;;1.02;0.60;;;22.00;54.60;;;;;;5022118;28;21313;-56
2021/08/28 09:00:14;;;;;;;0.93;0.70;;;22.00;54.60;;;;;;5012373;28;20026;-58
2021/08/28 09:02:40;;;;;;;0.77;0.60;;;22.00;54.60;;;;;;5012475;28;20075;-58
2021/08/28 09:05:06;;;;;;;0.60;0.60;;;22.00;54.60;;;;;;5024597;28;20250;-58
2021/08/28 09:07:32;;;;;;;1.17;0.70;;;22.00;54.60;;;;;;5014329;28;20088;-58
2021/08/28 09:09:58;;;;;;;0.70;0.70;;;22.00;54.60;;;;;;5008742;28;20484;-56
2021/08/28 09:12:35;;;;;;;0.80;0.63;;;22.00;54.60;;;;;;5022674;28;20032;-55
2021/08/28 09:15:00;;;;;;;1.05;0.70;;;22.00;54.70;;;;;;5014420;28;20030;-57
2021/08/28 09:17:26;;;;;;;2.15;0.98;;;22.00;54.60;;;;;;5008090;28;20056;-57
2021/08/28 09:19:52;;;;;;;0.73;0.57;;;22.00;54.70;;;;;;5024506;28;20037;-57
2021/08/28 09:22:22;;;;;;;0.50;0.50;;;22.00;54.60;;;;;;5017464;28;20975;-58
2021/08/28 09:24:49;;;;;;;0.90;0.60;;;22.00;54.70;;;;;;5027887;28;20096;-59
2021/08/28 09:27:41;;;;;;;0.93;0.60;;;22.00;54.60;;;;;;5026287;28;20036;-57
2021/08/28 09:30:22;;;;;;;0.70;0.60;;;22.00;54.60;;;;;;5010460;28;20104;-57
2021/08/28 09:32:56;;;;;;;0.82;0.68;;;22.00;54.70;;;;;;5042153;28;20029;-55
2021/08/28 09:35:24;;;;;;;1.50;0.60;;;22.00;54.70;;;;;;5010498;28;20350;-58
2021/08/28 09:37:56;;;;;;;0.90;0.70;;;22.00;54.70;;;;;;5019373;28;20472;-58
2021/08/28 09:40:24;;;;;;;0.75;0.63;;;22.00;54.70;;;;;;5022594;28;20061;-57
2021/08/28 09:42:58;;;;;;;1.13;0.77;;;22.00;54.70;;;;;;5021213;28;20116;-54
2021/08/28 09:45:25;;;;;;;0.90;0.70;;;22.00;54.70;;;;;;5024182;28;20022;-56
2021/08/28 09:47:53;;;;;;;1.50;0.70;;;22.00;54.70;;;;;;5019130;28;20044;-58
2021/08/28 09:50:30;;;;;;;1.20;0.70;;;22.00;54.70;;;;;;5010360;28;20034;-52
2021/08/28 09:53:04;;;;;;;0.57;0.50;;;22.00;54.70;;;;;;5024776;28;20038;-58
2021/08/28 09:55:31;;;;;;;1.20;0.90;;;22.00;54.80;;;;;;5016939;28;20034;-58
2021/08/28 09:57:57;;;;;;;0.82;0.65;;;21.90;54.70;;;;;;5021812;28;20227;-56
2021/08/28 10:00:23;;;;;;;1.38;0.70;;;22.00;54.70;;;;;;5022810;28;20116;-49
2021/08/28 10:02:59;;;;;;;1.05;0.70;;;22.00;54.70;;;;;;5023528;28;20099;-53
2021/08/28 10:05:29;;;;;;;1.25;0.60;;;22.00;54.70;;;;;;5015926;28;20033;-58
2021/08/28 10:07:57;;;;;;;1.30;0.70;;;22.00;54.70;;;;;;5020867;28;20034;-55
2021/08/28 10:10:23;;;;;;;1.17;0.70;;;22.00;54.80;;;;;;5020973;28;20064;-58
2021/08/28 10:12:50;;;;;;;1.58;0.70;;;22.00;54.70;;;;;;5016843;28;20103;-51
2021/08/28 10:15:17;;;;;;;1.48;0.77;;;22.00;54.70;;;;;;5023260;28;20127;-59
2021/08/28 10:17:43;;;;;;;1.63;0.80;;;22.00;54.70;;;;;;5025187;28;20359;-56
2021/08/28 10:20:09;;;;;;;1.40;0.80;;;22.00;54.70;;;;;;5018211;28;20030;-60
2021/08/28 10:22:37;;;;;;;1.15;0.70;;;22.00;54.80;;;;;;5027098;28;20121;-56
2021/08/28 10:25:08;;;;;;;0.93;0.70;;;22.00;54.80;;;;;;5017682;28;20025;-55
2021/08/28 10:27:33;;;;;;;1.13;0.70;;;22.00;54.80;;;;;;5011970;28;20052;-53
2021/08/28 10:29:59;;;;;;;0.77;0.70;;;22.00;54.90;;;;;;5019886;28;20037;-54
2021/08/28 10:32:25;;;;;;;1.42;0.68;;;22.00;54.90;;;;;;5020395;28;20074;-58
2021/08/28 10:34:52;;;;;;;0.73;0.70;;;22.00;54.90;;;;;;5024176;28;20107;-56
2021/08/28 10:37:19;;;;;;;1.30;0.80;;;22.00;54.90;;;;;;5013847;28;20341;-57
2021/08/28 10:39:48;;;;;;;1.10;0.70;;;22.00;55.00;;;;;;5014528;28;20026;-58
2021/08/28 10:42:15;;;;;;;1.00;0.70;;;22.00;55.00;;;;;;5022443;28;20078;-52
2021/08/28 10:44:41;;;;;;;1.13;0.75;;;22.00;55.00;;;;;;5012973;28;20033;-56
2021/08/28 10:47:14;;;;;;;1.38;0.70;;;22.00;55.00;;;;;;5025272;28;20042;-50
2021/08/28 10:49:45;;;;;;;2.45;0.85;;;22.00;55.10;;;;;;5014460;28;20018;-59
2021/08/28 10:52:47;;;;;;;1.85;0.80;;;22.00;55.60;;;;;;5013338;28;20037;-59
2021/08/28 10:55:13;;;;;;;2.13;0.75;;;22.00;55.10;;;;;;5008204;28;20120;-56
2021/08/28 10:57:40;;;;;;;1.40;0.80;;;22.00;55.00;;;;;;5019071;28;20594;-54
2021/08/28 11:00:13;;;;;;;1.00;0.70;;;22.00;55.10;;;;;;5021942;28;20060;-54
2021/08/28 11:02:57;;;;;;;1.88;0.82;;;22.00;55.20;;;;;;5020982;28;20062;-53
2021/08/28 11:05:25;;;;;;;1.67;0.80;;;22.00;55.20;;;;;;5014937;28;20040;-55
2021/08/28 11:07:51;;;;;;;2.03;1.00;;;22.00;55.20;;;;;;5015150;28;20029;-50
2021/08/28 11:10:22;;;;;;;1.50;0.70;;;22.00;55.20;;;;;;5014365;28;20029;-53
2021/08/28 11:13:00;;;;;;;1.25;0.70;;;22.00;55.20;;;;;;5012474;28;20040;-58
2021/08/28 11:15:35;;;;;;;1.60;0.80;;;22.00;55.20;;;;;;5017903;28;20040;-58
2021/08/28 11:18:34;;;;;;;0.80;0.70;;;22.10;55.20;;;;;;5016887;28;20038;-58
2021/08/28 11:21:07;;;;;;;1.25;0.70;;;22.00;55.20;;;;;;5008488;28;20060;-59
2021/08/28 11:23:39;;;;;;;1.45;0.75;;;22.10;55.30;;;;;;5021309;28;20083;-59
2021/08/28 11:26:05;;;;;;;1.38;0.70;;;22.10;55.20;;;;;;5012238;28;20441;-59
2021/08/28 11:28:39;;;;;;;1.45;0.80;;;22.10;55.20;;;;;;5018829;28;20025;-59
2021/08/28 11:31:05;;;;;;;0.82;0.60;;;22.10;55.20;;;;;;5015729;28;20026;-57
2021/08/28 11:33:33;;;;;;;1.40;0.80;;;22.10;55.20;;;;;;5017159;28;20374;-52
2021/08/28 11:35:59;;;;;;;1.25;0.80;;;22.10;55.20;;;;;;5018874;28;20040;-57
2021/08/28 11:38:36;;;;;;;2.15;0.90;;;22.10;55.20;;;;;;5021245;28;20025;-50
2021/08/28 11:41:11;;;;;;;1.02;0.75;;;22.10;55.20;;;;;;5018114;28;20029;-57
2021/08/28 11:43:42;;;;;;;1.38;0.63;;;22.10;55.30;;;;;;5058857;28;20392;-58
2021/08/28 11:46:28;;;;;;;1.27;0.90;;;22.10;55.30;;;;;;5037389;28;20056;-60
2021/08/28 11:48:55;;;;;;;1.17;0.80;;;22.10;55.30;;;;;;5038381;28;20033;-57
2021/08/28 11:51:26;;;;;;;1.52;0.80;;;22.10;55.20;;;;;;5035368;28;20107;-59
2021/08/28 11:53:56;;;;;;;3.20;0.90;;;22.10;55.20;;;;;;5033571;28;20087;-59
2021/08/28 11:56:29;;;;;;;1.58;0.90;;;22.10;55.20;;;;;;5026599;28;20080;-57
2021/08/28 11:58:58;;;;;;;1.85;0.88;;;22.10;55.20;;;;;;5042856;28;20029;-58
2021/08/28 12:01:42;;;;;;;1.33;0.80;;;22.10;55.20;;;;;;5046817;28;20499;-58
2021/08/28 12:04:18;;;;;;;1.63;1.00;;;22.10;55.20;;;;;;5031343;28;20541;-58
2021/08/28 12:06:50;;;;;;;1.35;0.70;;;22.10;55.30;;;;;;5026566;28;20057;-59
2021/08/28 12:09:16;;;;;;;1.58;0.73;;;22.10;55.20;;;;;;5035959;28;20126;-54
2021/08/28 12:11:47;;;;;;;3.03;0.95;;;22.10;55.20;;;;;;5024724;28;20073;-56
2021/08/28 12:14:13;;;;;;;2.90;0.88;;;22.10;55.20;;;;;;5004917;28;20557;-52
2021/08/28 12:16:40;;;;;;;1.70;0.75;;;22.10;55.10;;;;;;5017367;28;20026;-58
2021/08/28 12:19:13;;;;;;;1.95;0.80;;;22.10;55.10;;;;;;5009652;28;20040;-53
2021/08/28 12:22:04;;;;;;;1.75;0.80;;;22.20;55.20;;;;;;5024462;28;20086;-58
2021/08/28 12:24:31;;;;;;;2.25;1.00;;;22.20;55.10;;;;;;5015384;28;20141;-57
2021/08/28 12:27:02;;;;;;;1.15;0.80;;;22.20;55.10;;;;;;5008311;28;20092;-57
2021/08/28 12:29:30;;;;;;;2.10;0.80;;;22.20;55.10;;;;;;5024441;28;20084;-58
2021/08/28 12:32:11;;;;;;;1.63;0.80;;;22.20;55.10;;;;;;5020108;28;20057;-57
2021/08/28 12:34:45;;;;;;;1.63;0.90;;;22.20;55.00;;;;;;5019668;28;20136;-54
2021/08/28 12:37:18;;;;;;;1.27;0.63;;;22.20;55.00;;;;;;5022302;28;20026;-55
2021/08/28 12:39:48;;;;;;;0.80;0.70;;;22.20;55.00;;;;;;5009045;28;20026;-57
2021/08/28 12:42:18;;;;;;;0.90;0.60;;;22.20;54.90;;;;;;5012766;28;20179;-56
2021/08/28 12:44:52;;;;;;;2.25;1.00;;;22.20;54.90;;;;;;5048450;28;20017;-57
2021/08/28 12:47:20;;;;;;;1.42;0.80;;;22.20;54.90;;;;;;5032791;28;20025;-59
2021/08/28 12:49:46;;;;;;;0.95;0.70;;;22.20;54.90;;;;;;5041989;28;20031;-56
2021/08/28 12:52:13;;;;;;;2.85;1.20;;;22.20;54.80;;;;;;5046983;28;20036;-59